Khartoum, Sudan
Current Conditions -  °F | °C
As of 11:00 AM on Friday 24 Oct 2014 (Local Time) from HSSS Reporting Station
Clear Clear  
Wind Chill: 93°   Ceiling: Unl
Heat Index: 93°   Visibility: 4mi
Dew Point: 46°   Wind: 16mph
Humidity: 20%   Direction: 30°NNE
Pressure: 29.91"   Gusts: NA
Location:  15.58°N, 32.52°E
Report Text: HSSS 240800Z 03014KT 6000 NSC 34/08 Q1013 NOSIG
Loading
Personal Weather Stations






























Interactive Weather Map
Tropical Storm Tracking
New forecast layout! Learn more

10-Day Weather Forecast

Advertisements
Track Severe Weather on mobile